sensor_id;sensor_type;location;lat;lon;timestamp;temperature;humidity
18577;DHT22;9418;52.694;13.294;2024-03-02T00:00:43;5.50;22.10
18577;DHT22;9418;52.694;13.294;2024-03-02T00:03:11;5.50;22.00
18577;DHT22;9418;52.694;13.294;2024-03-02T00:05:41;5.50;21.40
18577;DHT22;9418;52.694;13.294;2024-03-02T00:08:07;5.50;21.90
18577;DHT22;9418;52.694;13.294;2024-03-02T00:10:37;5.60;22.20
18577;DHT22;9418;52.694;13.294;2024-03-02T00:13:05;5.60;23.10
18577;DHT22;9418;52.694;13.294;2024-03-02T00:15:40;5.60;24.00
18577;DHT22;9418;52.694;13.294;2024-03-02T00:18:09;5.60;26.40
18577;DHT22;9418;52.694;13.294;2024-03-02T00:20:36;5.60;29.80
18577;DHT22;9418;52.694;13.294;2024-03-02T00:23:05;5.60;33.00
18577;DHT22;9418;52.694;13.294;2024-03-02T00:25:40;5.60;30.30
18577;DHT22;9418;52.694;13.294;2024-03-02T00:28:13;5.70;30.10
18577;DHT22;9418;52.694;13.294;2024-03-02T00:30:51;5.70;28.30
18577;DHT22;9418;52.694;13.294;2024-03-02T00:33:19;5.70;31.10
18577;DHT22;9418;52.694;13.294;2024-03-02T00:35:47;5.70;30.10
18577;DHT22;9418;52.694;13.294;2024-03-02T00:38:15;5.80;29.70
18577;DHT22;9418;52.694;13.294;2024-03-02T00:40:42;5.80;31.10
18577;DHT22;9418;52.694;13.294;2024-03-02T00:46:19;5.80;30.10
18577;DHT22;9418;52.694;13.294;2024-03-02T00:48:53;5.90;29.00
18577;DHT22;9418;52.694;13.294;2024-03-02T00:51:21;5.90;30.10
18577;DHT22;9418;52.694;13.294;2024-03-02T00:53:49;5.90;30.10
18577;DHT22;9418;52.694;13.294;2024-03-02T00:56:16;5.90;28.50
18577;DHT22;9418;52.694;13.294;2024-03-02T00:58:43;5.90;27.60
18577;DHT22;9418;52.694;13.294;2024-03-02T01:01:10;5.90;26.40
18577;DHT22;9418;52.694;13.294;2024-03-02T01:03:36;5.90;27.80
18577;DHT22;9418;52.694;13.294;2024-03-02T01:06:04;5.90;26.40
18577;DHT22;9418;52.694;13.294;2024-03-02T01:08:33;6.00;24.30
18577;DHT22;9418;52.694;13.294;2024-03-02T01:11:00;6.00;23.90
18577;DHT22;9418;52.694;13.294;2024-03-02T01:13:27;6.00;25.60
18577;DHT22;9418;52.694;13.294;2024-03-02T01:15:54;6.00;28.00
18577;DHT22;9418;52.694;13.294;2024-03-02T01:18:20;6.00;29.10
18577;DHT22;9418;52.694;13.294;2024-03-02T01:20:48;6.00;27.90
18577;DHT22;9418;52.694;13.294;2024-03-02T01:23:17;6.00;27.50
18577;DHT22;9418;52.694;13.294;2024-03-02T01:25:43;6.00;21.40
18577;DHT22;9418;52.694;13.294;2024-03-02T01:28:11;6.00;79.70
18577;DHT22;9418;52.694;13.294;2024-03-02T01:30:38;6.00;99.90
18577;DHT22;9418;52.694;13.294;2024-03-02T01:33:04;6.10;99.90
18577;DHT22;9418;52.694;13.294;2024-03-02T01:35:32;6.10;99.90
18577;DHT22;9418;52.694;13.294;2024-03-02T01:37:58;6.10;91.50
18577;DHT22;9418;52.694;13.294;2024-03-02T01:40:25;6.10;99.90
18577;DHT22;9418;52.694;13.294;2024-03-02T01:42:52;6.10;99.90
18577;DHT22;9418;52.694;13.294;2024-03-02T01:45:21;6.20;99.90
18577;DHT22;9418;52.694;13.294;2024-03-02T01:47:47;6.20;99.90
18577;DHT22;9418;52.694;13.294;2024-03-02T01:50:14;6.20;99.90
18577;DHT22;9418;52.694;13.294;2024-03-02T01:52:41;6.20;99.90
18577;DHT22;9418;52.694;13.294;2024-03-02T01:55:09;6.20;99.90
18577;DHT22;9418;52.694;13.294;2024-03-02T01:57:36;6.20;99.90
18577;DHT22;9418;52.694;13.294;2024-03-02T02:00:03;6.30;99.90
18577;DHT22;9418;52.694;13.294;2024-03-02T02:02:32;6.30;99.90
18577;DHT22;9418;52.694;13.294;2024-03-02T02:04:58;6.30;99.90
18577;DHT22;9418;52.694;13.294;2024-03-02T02:07:25;6.30;99.90
18577;DHT22;9418;52.694;13.294;2024-03-02T02:09:52;6.40;99.90
18577;DHT22;9418;52.694;13.294;2024-03-02T02:12:18;6.40;99.90
18577;DHT22;9418;52.694;13.294;2024-03-02T02:14:48;6.30;99.90
18577;DHT22;9418;52.694;13.294;2024-03-02T02:17:15;6.30;99.90
18577;DHT22;9418;52.694;13.294;2024-03-02T02:19:42;6.30;99.90
18577;DHT22;9418;52.694;13.294;2024-03-02T02:22:10;6.30;99.90
18577;DHT22;9418;52.694;13.294;2024-03-02T02:24:39;6.30;99.90
18577;DHT22;9418;52.694;13.294;2024-03-02T02:27:06;6.30;99.90
18577;DHT22;9418;52.694;13.294;2024-03-02T02:29:33;6.30;99.90
18577;DHT22;9418;52.694;13.294;2024-03-02T02:31:59;6.30;99.90
18577;DHT22;9418;52.694;13.294;2024-03-02T02:34:26;6.30;99.90
18577;DHT22;9418;52.694;13.294;2024-03-02T02:36:53;6.30;99.90
18577;DHT22;9418;52.694;13.294;2024-03-02T02:39:22;6.30;99.90
18577;DHT22;9418;52.694;13.294;2024-03-02T02:41:48;6.30;99.90
18577;DHT22;9418;52.694;13.294;2024-03-02T02:44:15;6.40;99.90
18577;DHT22;9418;52.694;13.294;2024-03-02T02:46:42;6.40;99.90
18577;DHT22;9418;52.694;13.294;2024-03-02T02:49:08;6.40;99.90
18577;DHT22;9418;52.694;13.294;2024-03-02T02:51:35;6.40;99.90
18577;DHT22;9418;52.694;13.294;2024-03-02T02:54:02;6.40;99.90
18577;DHT22;9418;52.694;13.294;2024-03-02T02:56:29;6.50;99.90
18577;DHT22;9418;52.694;13.294;2024-03-02T02:58:56;6.50;99.90
18577;DHT22;9418;52.694;13.294;2024-03-02T03:01:23;6.50;99.90
18577;DHT22;9418;52.694;13.294;2024-03-02T03:03:49;6.60;99.90
18577;DHT22;9418;52.694;13.294;2024-03-02T03:06:16;6.60;99.90
18577;DHT22;9418;52.694;13.294;2024-03-02T03:08:42;6.60;99.90
18577;DHT22;9418;52.694;13.294;2024-03-02T03:11:09;6.60;99.90
18577;DHT22;9418;52.694;13.294;2024-03-02T03:13:37;6.70;99.90
18577;DHT22;9418;52.694;13.294;2024-03-02T03:16:04;6.70;99.90
18577;DHT22;9418;52.694;13.294;2024-03-02T03:18:31;6.70;99.90
18577;DHT22;9418;52.694;13.294;2024-03-02T03:20:57;6.80;99.90
18577;DHT22;9418;52.694;13.294;2024-03-02T03:23:24;6.80;99.90
18577;DHT22;9418;52.694;13.294;2024-03-02T03:25:51;6.90;99.90
18577;DHT22;9418;52.694;13.294;2024-03-02T03:28:17;6.90;99.90
18577;DHT22;9418;52.694;13.294;2024-03-02T03:30:45;7.00;99.90
18577;DHT22;9418;52.694;13.294;2024-03-02T03:33:12;7.10;99.90
18577;DHT22;9418;52.694;13.294;2024-03-02T03:35:39;7.10;99.90
18577;DHT22;9418;52.694;13.294;2024-03-02T03:38:06;7.10;99.90
18577;DHT22;9418;52.694;13.294;2024-03-02T03:40:32;7.20;99.90
18577;DHT22;9418;52.694;13.294;2024-03-02T03:42:59;7.30;99.90
18577;DHT22;9418;52.694;13.294;2024-03-02T03:45:25;7.40;99.90
18577;DHT22;9418;52.694;13.294;2024-03-02T03:47:54;7.50;99.90
18577;DHT22;9418;52.694;13.294;2024-03-02T03:50:20;7.50;99.90
18577;DHT22;9418;52.694;13.294;2024-03-02T03:52:47;7.60;99.90
18577;DHT22;9418;52.694;13.294;2024-03-02T03:55:14;7.60;99.90
18577;DHT22;9418;52.694;13.294;2024-03-02T03:57:40;7.70;99.90
18577;DHT22;9418;52.694;13.294;2024-03-02T04:00:08;7.70;99.90
18577;DHT22;9418;52.694;13.294;2024-03-02T04:02:36;7.80;99.90
18577;DHT22;9418;52.694;13.294;2024-03-02T04:05:05;7.80;99.90
18577;DHT22;9418;52.694;13.294;2024-03-02T04:07:35;7.80;99.90
18577;DHT22;9418;52.694;13.294;2024-03-02T04:10:06;7.80;99.90
18577;DHT22;9418;52.694;13.294;2024-03-02T04:12:34;7.80;99.90
18577;DHT22;9418;52.694;13.294;2024-03-02T04:15:01;7.80;99.90
18577;DHT22;9418;52.694;13.294;2024-03-02T04:17:29;7.80;99.90
18577;DHT22;9418;52.694;13.294;2024-03-02T04:19:57;7.80;99.90
18577;DHT22;9418;52.694;13.294;2024-03-02T04:22:25;7.90;99.90
18577;DHT22;9418;52.694;13.294;2024-03-02T04:24:52;7.80;99.90
18577;DHT22;9418;52.694;13.294;2024-03-02T04:27:18;7.90;99.90
18577;DHT22;9418;52.694;13.294;2024-03-02T04:29:45;7.90;99.90
18577;DHT22;9418;52.694;13.294;2024-03-02T04:32:11;7.90;99.90
18577;DHT22;9418;52.694;13.294;2024-03-02T04:34:38;7.90;99.90
18577;DHT22;9418;52.694;13.294;2024-03-02T04:37:05;7.90;99.90
18577;DHT22;9418;52.694;13.294;2024-03-02T04:39:34;8.00;99.90
18577;DHT22;9418;52.694;13.294;2024-03-02T04:42:01;8.00;99.90
18577;DHT22;9418;52.694;13.294;2024-03-02T04:44:28;8.00;99.90
18577;DHT22;9418;52.694;13.294;2024-03-02T04:46:54;8.10;99.90
18577;DHT22;9418;52.694;13.294;2024-03-02T04:49:21;8.10;99.90
18577;DHT22;9418;52.694;13.294;2024-03-02T04:51:48;8.10;99.90
18577;DHT22;9418;52.694;13.294;2024-03-02T04:54:14;8.20;99.90
18577;DHT22;9418;52.694;13.294;2024-03-02T04:56:42;8.20;99.90
18577;DHT22;9418;52.694;13.294;2024-03-02T04:59:15;8.20;99.90
18577;DHT22;9418;52.694;13.294;2024-03-02T05:01:41;8.20;99.90
18577;DHT22;9418;52.694;13.294;2024-03-02T05:04:08;8.20;99.90
18577;DHT22;9418;52.694;13.294;2024-03-02T05:06:37;8.20;99.90
18577;DHT22;9418;52.694;13.294;2024-03-02T05:09:03;8.20;99.90
18577;DHT22;9418;52.694;13.294;2024-03-02T05:11:30;8.10;99.90
18577;DHT22;9418;52.694;13.294;2024-03-02T05:14:22;8.10;99.90
18577;DHT22;9418;52.694;13.294;2024-03-02T05:16:50;8.20;99.90
18577;DHT22;9418;52.694;13.294;2024-03-02T05:19:17;8.20;99.90
18577;DHT22;9418;52.694;13.294;2024-03-02T05:21:43;8.20;99.90
18577;DHT22;9418;52.694;13.294;2024-03-02T05:24:10;8.20;99.90
18577;DHT22;9418;52.694;13.294;2024-03-02T05:26:37;8.20;99.90
18577;DHT22;9418;52.694;13.294;2024-03-02T05:29:03;8.20;99.90
18577;DHT22;9418;52.694;13.294;2024-03-02T05:31:31;8.20;99.90
18577;DHT22;9418;52.694;13.294;2024-03-02T05:33:58;8.20;99.90
18577;DHT22;9418;52.694;13.294;2024-03-02T05:36:24;8.20;99.90
18577;DHT22;9418;52.694;13.294;2024-03-02T05:38:51;8.20;99.90
18577;DHT22;9418;52.694;13.294;2024-03-02T05:41:18;8.20;99.90
18577;DHT22;9418;52.694;13.294;2024-03-02T05:43:44;8.20;99.90
18577;DHT22;9418;52.694;13.294;2024-03-02T05:46:11;8.20;99.90
18577;DHT22;9418;52.694;13.294;2024-03-02T05:48:39;8.20;99.90
18577;DHT22;9418;52.694;13.294;2024-03-02T05:51:06;8.30;99.90
18577;DHT22;9418;52.694;13.294;2024-03-02T05:53:32;8.20;99.90
18577;DHT22;9418;52.694;13.294;2024-03-02T05:55:59;8.30;99.90
18577;DHT22;9418;52.694;13.294;2024-03-02T05:58:26;8.20;99.90
18577;DHT22;9418;52.694;13.294;2024-03-02T06:01:03;8.30;99.90
18577;DHT22;9418;52.694;13.294;2024-03-02T06:03:31;8.30;99.90
18577;DHT22;9418;52.694;13.294;2024-03-02T06:05:59;8.30;99.90
18577;DHT22;9418;52.694;13.294;2024-03-02T06:08:25;8.30;99.90
18577;DHT22;9418;52.694;13.294;2024-03-02T06:10:52;8.30;99.90
18577;DHT22;9418;52.694;13.294;2024-03-02T06:13:18;8.30;99.90
18577;DHT22;9418;52.694;13.294;2024-03-02T06:15:45;8.30;99.90
18577;DHT22;9418;52.694;13.294;2024-03-02T06:18:12;8.30;99.90
18577;DHT22;9418;52.694;13.294;2024-03-02T06:20:38;8.30;99.90
18577;DHT22;9418;52.694;13.294;2024-03-02T06:23:06;8.30;99.90
18577;DHT22;9418;52.694;13.294;2024-03-02T06:25:33;8.30;99.90
18577;DHT22;9418;52.694;13.294;2024-03-02T06:27:59;8.30;99.90
18577;DHT22;9418;52.694;13.294;2024-03-02T06:30:26;8.30;99.90
18577;DHT22;9418;52.694;13.294;2024-03-02T06:32:53;8.30;99.90
18577;DHT22;9418;52.694;13.294;2024-03-02T06:35:19;8.30;99.90
18577;DHT22;9418;52.694;13.294;2024-03-02T06:37:46;8.30;99.90
18577;DHT22;9418;52.694;13.294;2024-03-02T06:40:14;8.30;99.90
18577;DHT22;9418;52.694;13.294;2024-03-02T06:42:40;8.30;99.90
18577;DHT22;9418;52.694;13.294;2024-03-02T06:45:07;8.30;99.90
18577;DHT22;9418;52.694;13.294;2024-03-02T06:47:34;8.30;99.90
18577;DHT22;9418;52.694;13.294;2024-03-02T06:50:00;8.30;99.90
18577;DHT22;9418;52.694;13.294;2024-03-02T06:52:27;8.30;99.90
18577;DHT22;9418;52.694;13.294;2024-03-02T06:54:53;8.40;99.90
18577;DHT22;9418;52.694;13.294;2024-03-02T06:57:21;8.40;99.90
18577;DHT22;9418;52.694;13.294;2024-03-02T06:59:49;8.40;99.90
18577;DHT22;9418;52.694;13.294;2024-03-02T07:02:19;8.50;99.90
18577;DHT22;9418;52.694;13.294;2024-03-02T07:04:45;8.60;99.90
18577;DHT22;9418;52.694;13.294;2024-03-02T07:07:12;8.60;99.90
18577;DHT22;9418;52.694;13.294;2024-03-02T07:09:39;8.60;99.90
18577;DHT22;9418;52.694;13.294;2024-03-02T07:12:06;8.50;99.90
18577;DHT22;9418;52.694;13.294;2024-03-02T07:14:34;8.40;99.90
18577;DHT22;9418;52.694;13.294;2024-03-02T07:17:17;8.40;99.90
18577;DHT22;9418;52.694;13.294;2024-03-02T07:19:44;8.30;99.90
18577;DHT22;9418;52.694;13.294;2024-03-02T07:22:11;8.20;99.90
18577;DHT22;9418;52.694;13.294;2024-03-02T07:24:40;8.20;99.90
18577;DHT22;9418;52.694;13.294;2024-03-02T07:27:07;8.10;99.90
18577;DHT22;9418;52.694;13.294;2024-03-02T07:29:35;8.10;99.90
18577;DHT22;9418;52.694;13.294;2024-03-02T07:32:02;8.20;99.90
18577;DHT22;9418;52.694;13.294;2024-03-02T07:34:29;8.20;99.90
18577;DHT22;9418;52.694;13.294;2024-03-02T07:36:56;8.30;99.90
18577;DHT22;9418;52.694;13.294;2024-03-02T07:39:22;8.40;99.90
18577;DHT22;9418;52.694;13.294;2024-03-02T07:41:49;8.50;99.90
18577;DHT22;9418;52.694;13.294;2024-03-02T07:44:16;8.50;99.90
18577;DHT22;9418;52.694;13.294;2024-03-02T07:46:46;8.60;99.90
18577;DHT22;9418;52.694;13.294;2024-03-02T07:49:15;8.60;99.90
18577;DHT22;9418;52.694;13.294;2024-03-02T07:51:42;8.60;99.90
18577;DHT22;9418;52.694;13.294;2024-03-02T07:54:09;8.60;99.90
18577;DHT22;9418;52.694;13.294;2024-03-02T07:56:35;8.70;99.90
18577;DHT22;9418;52.694;13.294;2024-03-02T07:59:03;8.70;99.90
18577;DHT22;9418;52.694;13.294;2024-03-02T08:01:31;8.70;99.90
18577;DHT22;9418;52.694;13.294;2024-03-02T08:04:00;8.70;99.90
18577;DHT22;9418;52.694;13.294;2024-03-02T08:06:27;8.70;99.90
18577;DHT22;9418;52.694;13.294;2024-03-02T08:08:54;8.70;99.90
18577;DHT22;9418;52.694;13.294;2024-03-02T08:11:20;8.70;99.90
18577;DHT22;9418;52.694;13.294;2024-03-02T08:13:47;8.80;99.90
18577;DHT22;9418;52.694;13.294;2024-03-02T08:16:14;8.70;99.90
18577;DHT22;9418;52.694;13.294;2024-03-02T08:18:41;8.70;99.90
18577;DHT22;9418;52.694;13.294;2024-03-02T08:21:09;8.70;99.90
18577;DHT22;9418;52.694;13.294;2024-03-02T08:23:36;8.80;99.90
18577;DHT22;9418;52.694;13.294;2024-03-02T08:26:03;8.80;99.90
18577;DHT22;9418;52.694;13.294;2024-03-02T08:28:30;8.90;99.90
18577;DHT22;9418;52.694;13.294;2024-03-02T08:30:57;8.90;99.90
18577;DHT22;9418;52.694;13.294;2024-03-02T08:33:23;8.90;99.90
18577;DHT22;9418;52.694;13.294;2024-03-02T08:35:50;8.90;99.90
18577;DHT22;9418;52.694;13.294;2024-03-02T08:38:18;9.00;99.90
18577;DHT22;9418;52.694;13.294;2024-03-02T08:40:45;9.00;99.90
18577;DHT22;9418;52.694;13.294;2024-03-02T08:43:12;9.00;99.90
18577;DHT22;9418;52.694;13.294;2024-03-02T08:45:38;9.10;99.90
18577;DHT22;9418;52.694;13.294;2024-03-02T08:48:06;9.10;99.90
18577;DHT22;9418;52.694;13.294;2024-03-02T08:50:33;9.20;99.90
18577;DHT22;9418;52.694;13.294;2024-03-02T08:53:00;9.20;99.90
18577;DHT22;9418;52.694;13.294;2024-03-02T08:55:28;9.30;99.90
18577;DHT22;9418;52.694;13.294;2024-03-02T08:57:55;9.20;99.90
18577;DHT22;9418;52.694;13.294;2024-03-02T09:00:22;9.30;99.90
18577;DHT22;9418;52.694;13.294;2024-03-02T09:02:49;9.30;99.90
18577;DHT22;9418;52.694;13.294;2024-03-02T09:05:15;9.30;99.90
18577;DHT22;9418;52.694;13.294;2024-03-02T09:07:42;9.30;99.90
18577;DHT22;9418;52.694;13.294;2024-03-02T09:10:09;9.40;99.90
18577;DHT22;9418;52.694;13.294;2024-03-02T09:12:37;9.30;99.90
18577;DHT22;9418;52.694;13.294;2024-03-02T09:15:05;9.30;99.90
18577;DHT22;9418;52.694;13.294;2024-03-02T09:17:32;9.30;96.60
18577;DHT22;9418;52.694;13.294;2024-03-02T09:19:59;9.40;99.90
18577;DHT22;9418;52.694;13.294;2024-03-02T09:22:25;9.40;99.90
18577;DHT22;9418;52.694;13.294;2024-03-02T09:24:52;9.50;99.90
18577;DHT22;9418;52.694;13.294;2024-03-02T09:27:18;9.50;99.90
18577;DHT22;9418;52.694;13.294;2024-03-02T09:29:46;9.60;20.20
18577;DHT22;9418;52.694;13.294;2024-03-02T09:32:14;9.50;35.50
18577;DHT22;9418;52.694;13.294;2024-03-02T09:34:41;9.60;24.20
18577;DHT22;9418;52.694;13.294;2024-03-02T09:37:08;9.50;32.30
18577;DHT22;9418;52.694;13.294;2024-03-02T09:39:35;9.60;35.90
18577;DHT22;9418;52.694;13.294;2024-03-02T09:42:03;9.50;57.90
18577;DHT22;9418;52.694;13.294;2024-03-02T09:44:30;9.50;51.60
18577;DHT22;9418;52.694;13.294;2024-03-02T09:46:58;9.50;55.20
18577;DHT22;9418;52.694;13.294;2024-03-02T09:49:25;9.50;50.70
18577;DHT22;9418;52.694;13.294;2024-03-02T09:51:52;9.60;47.10
18577;DHT22;9418;52.694;13.294;2024-03-02T09:54:19;9.70;55.60
18577;DHT22;9418;52.694;13.294;2024-03-02T09:56:46;9.70;61.00
18577;DHT22;9418;52.694;13.294;2024-03-02T09:59:13;9.70;81.60
18577;DHT22;9418;52.694;13.294;2024-03-02T10:01:55;9.80;78.30
18577;DHT22;9418;52.694;13.294;2024-03-02T10:04:24;9.80;81.40
18577;DHT22;9418;52.694;13.294;2024-03-02T10:06:51;9.80;99.90
18577;DHT22;9418;52.694;13.294;2024-03-02T10:09:27;10.00;95.30
18577;DHT22;9418;52.694;13.294;2024-03-02T10:12:03;10.10;99.90
18577;DHT22;9418;52.694;13.294;2024-03-02T10:14:30;10.10;99.90
18577;DHT22;9418;52.694;13.294;2024-03-02T10:17:02;10.20;99.90
18577;DHT22;9418;52.694;13.294;2024-03-02T10:19:30;10.30;99.90
18577;DHT22;9418;52.694;13.294;2024-03-02T10:21:59;10.30;99.90
18577;DHT22;9418;52.694;13.294;2024-03-02T10:24:25;10.50;99.90
18577;DHT22;9418;52.694;13.294;2024-03-02T10:26:52;10.60;99.90
18577;DHT22;9418;52.694;13.294;2024-03-02T10:29:19;10.80;99.90
18577;DHT22;9418;52.694;13.294;2024-03-02T10:31:46;10.90;99.90
18577;DHT22;9418;52.694;13.294;2024-03-02T10:34:13;11.00;99.90
18577;DHT22;9418;52.694;13.294;2024-03-02T10:36:43;11.10;99.90
18577;DHT22;9418;52.694;13.294;2024-03-02T10:39:13;11.20;99.90
18577;DHT22;9418;52.694;13.294;2024-03-02T10:41:40;11.30;99.90
18577;DHT22;9418;52.694;13.294;2024-03-02T10:44:08;11.50;99.90
18577;DHT22;9418;52.694;13.294;2024-03-02T10:46:36;11.50;99.90
18577;DHT22;9418;52.694;13.294;2024-03-02T10:49:03;11.50;29.10
18577;DHT22;9418;52.694;13.294;2024-03-02T10:51:32;11.50;32.00
18577;DHT22;9418;52.694;13.294;2024-03-02T10:54:04;11.50;27.40
18577;DHT22;9418;52.694;13.294;2024-03-02T10:56:33;11.60;99.90
18577;DHT22;9418;52.694;13.294;2024-03-02T10:59:03;11.60;80.90
18577;DHT22;9418;52.694;13.294;2024-03-02T11:01:33;11.70;30.80
18577;DHT22;9418;52.694;13.294;2024-03-02T11:04:02;11.90;30.70
18577;DHT22;9418;52.694;13.294;2024-03-02T11:06:30;12.20;55.00
18577;DHT22;9418;52.694;13.294;2024-03-02T11:09:03;12.70;58.10
18577;DHT22;9418;52.694;13.294;2024-03-02T11:11:36;12.90;73.20
18577;DHT22;9418;52.694;13.294;2024-03-02T11:14:04;13.50;77.80
18577;DHT22;9418;52.694;13.294;2024-03-02T11:16:35;13.60;89.10
18577;DHT22;9418;52.694;13.294;2024-03-02T11:19:04;13.70;84.80
18577;DHT22;9418;52.694;13.294;2024-03-02T11:21:32;13.60;99.90
18577;DHT22;9418;52.694;13.294;2024-03-02T11:23:59;14.20;99.90
18577;DHT22;9418;52.694;13.294;2024-03-02T11:26:29;14.50;99.90
18577;DHT22;9418;52.694;13.294;2024-03-02T11:28:55;14.70;99.90
18577;DHT22;9418;52.694;13.294;2024-03-02T11:31:59;14.20;99.90
18577;DHT22;9418;52.694;13.294;2024-03-02T11:34:29;14.20;99.90
18577;DHT22;9418;52.694;13.294;2024-03-02T11:36:56;14.90;99.90
18577;DHT22;9418;52.694;13.294;2024-03-02T11:39:22;15.20;99.90
18577;DHT22;9418;52.694;13.294;2024-03-02T11:41:51;15.40;99.90
18577;DHT22;9418;52.694;13.294;2024-03-02T11:44:18;14.70;99.90
18577;DHT22;9418;52.694;13.294;2024-03-02T11:46:45;14.20;99.90
18577;DHT22;9418;52.694;13.294;2024-03-02T11:49:14;13.90;99.90
18577;DHT22;9418;52.694;13.294;2024-03-02T11:51:51;13.80;99.90
18577;DHT22;9418;52.694;13.294;2024-03-02T11:54:20;13.50;99.90
18577;DHT22;9418;52.694;13.294;2024-03-02T11:56:47;13.20;99.90
18577;DHT22;9418;52.694;13.294;2024-03-02T11:59:15;13.20;99.90
18577;DHT22;9418;52.694;13.294;2024-03-02T12:01:42;13.10;99.90
18577;DHT22;9418;52.694;13.294;2024-03-02T12:04:10;13.00;99.90
18577;DHT22;9418;52.694;13.294;2024-03-02T12:06:37;12.90;99.90
18577;DHT22;9418;52.694;13.294;2024-03-02T12:09:04;13.00;99.90
18577;DHT22;9418;52.694;13.294;2024-03-02T12:11:32;12.90;99.90
18577;DHT22;9418;52.694;13.294;2024-03-02T12:13:58;12.90;99.90
18577;DHT22;9418;52.694;13.294;2024-03-02T12:16:26;12.80;99.90
18577;DHT22;9418;52.694;13.294;2024-03-02T12:18:54;12.70;99.90
18577;DHT22;9418;52.694;13.294;2024-03-02T12:21:20;12.90;99.90
18577;DHT22;9418;52.694;13.294;2024-03-02T12:23:47;13.00;99.90
18577;DHT22;9418;52.694;13.294;2024-03-02T12:26:15;13.00;99.90
18577;DHT22;9418;52.694;13.294;2024-03-02T12:28:42;13.10;99.90
18577;DHT22;9418;52.694;13.294;2024-03-02T12:31:09;13.20;99.90
18577;DHT22;9418;52.694;13.294;2024-03-02T12:33:37;13.60;99.90
18577;DHT22;9418;52.694;13.294;2024-03-02T12:36:04;13.50;99.90
18577;DHT22;9418;52.694;13.294;2024-03-02T12:38:31;13.50;99.90
18577;DHT22;9418;52.694;13.294;2024-03-02T12:40:58;13.70;99.90
18577;DHT22;9418;52.694;13.294;2024-03-02T12:43:24;13.70;99.90
18577;DHT22;9418;52.694;13.294;2024-03-02T12:45:55;13.90;99.90
18577;DHT22;9418;52.694;13.294;2024-03-02T12:48:22;14.00;99.90
18577;DHT22;9418;52.694;13.294;2024-03-02T12:50:50;14.10;99.90
18577;DHT22;9418;52.694;13.294;2024-03-02T12:53:17;14.40;99.90
18577;DHT22;9418;52.694;13.294;2024-03-02T12:55:44;14.70;99.90
18577;DHT22;9418;52.694;13.294;2024-03-02T12:58:16;14.80;99.90
18577;DHT22;9418;52.694;13.294;2024-03-02T13:00:43;14.60;99.90
18577;DHT22;9418;52.694;13.294;2024-03-02T13:03:11;14.90;99.90
18577;DHT22;9418;52.694;13.294;2024-03-02T13:05:39;15.00;99.90
18577;DHT22;9418;52.694;13.294;2024-03-02T13:08:07;15.60;99.90
18577;DHT22;9418;52.694;13.294;2024-03-02T13:10:34;15.70;99.90
18577;DHT22;9418;52.694;13.294;2024-03-02T13:13:01;15.60;99.90
18577;DHT22;9418;52.694;13.294;2024-03-02T13:15:27;15.40;99.90
18577;DHT22;9418;52.694;13.294;2024-03-02T13:17:54;15.40;99.90
18577;DHT22;9418;52.694;13.294;2024-03-02T13:20:30;15.10;99.90
18577;DHT22;9418;52.694;13.294;2024-03-02T13:22:57;15.20;99.90
18577;DHT22;9418;52.694;13.294;2024-03-02T13:25:25;15.20;99.90
18577;DHT22;9418;52.694;13.294;2024-03-02T13:27:51;15.20;99.90
18577;DHT22;9418;52.694;13.294;2024-03-02T13:30:18;14.80;99.90
18577;DHT22;9418;52.694;13.294;2024-03-02T13:32:45;14.70;99.90
18577;DHT22;9418;52.694;13.294;2024-03-02T13:35:11;14.70;99.90
18577;DHT22;9418;52.694;13.294;2024-03-02T13:37:38;14.80;99.90
18577;DHT22;9418;52.694;13.294;2024-03-02T13:40:05;14.70;99.90
18577;DHT22;9418;52.694;13.294;2024-03-02T13:42:39;14.90;99.90
18577;DHT22;9418;52.694;13.294;2024-03-02T13:45:06;15.30;99.90
18577;DHT22;9418;52.694;13.294;2024-03-02T13:47:33;15.50;99.90
18577;DHT22;9418;52.694;13.294;2024-03-02T13:49:59;15.60;99.90
18577;DHT22;9418;52.694;13.294;2024-03-02T13:52:28;15.50;99.90
18577;DHT22;9418;52.694;13.294;2024-03-02T13:54:55;15.20;99.90
18577;DHT22;9418;52.694;13.294;2024-03-02T13:57:22;14.80;99.90
18577;DHT22;9418;52.694;13.294;2024-03-02T13:59:50;14.40;99.90
18577;DHT22;9418;52.694;13.294;2024-03-02T14:02:17;14.40;99.90
18577;DHT22;9418;52.694;13.294;2024-03-02T14:04:44;14.30;99.90
18577;DHT22;9418;52.694;13.294;2024-03-02T14:07:11;14.20;99.90
18577;DHT22;9418;52.694;13.294;2024-03-02T14:09:37;14.10;99.90
18577;DHT22;9418;52.694;13.294;2024-03-02T14:12:05;14.00;99.90
18577;DHT22;9418;52.694;13.294;2024-03-02T14:14:32;14.10;99.90
18577;DHT22;9418;52.694;13.294;2024-03-02T14:17:00;14.00;99.90
18577;DHT22;9418;52.694;13.294;2024-03-02T14:19:29;13.90;99.90
18577;DHT22;9418;52.694;13.294;2024-03-02T14:21:56;13.90;99.90
18577;DHT22;9418;52.694;13.294;2024-03-02T14:24:22;13.90;99.90
18577;DHT22;9418;52.694;13.294;2024-03-02T14:26:51;13.60;99.90
18577;DHT22;9418;52.694;13.294;2024-03-02T14:29:17;13.70;99.90
18577;DHT22;9418;52.694;13.294;2024-03-02T14:31:44;13.70;99.90
18577;DHT22;9418;52.694;13.294;2024-03-02T14:34:15;13.50;99.90
18577;DHT22;9418;52.694;13.294;2024-03-02T14:36:41;13.50;99.90
18577;DHT22;9418;52.694;13.294;2024-03-02T14:39:09;13.60;99.90
18577;DHT22;9418;52.694;13.294;2024-03-02T14:41:36;13.60;99.90
18577;DHT22;9418;52.694;13.294;2024-03-02T14:44:02;13.50;99.90
18577;DHT22;9418;52.694;13.294;2024-03-02T14:46:29;13.60;99.90
18577;DHT22;9418;52.694;13.294;2024-03-02T14:48:56;13.70;99.90
18577;DHT22;9418;52.694;13.294;2024-03-02T14:51:24;13.70;99.90
18577;DHT22;9418;52.694;13.294;2024-03-02T14:53:51;13.80;99.90
18577;DHT22;9418;52.694;13.294;2024-03-02T14:56:18;13.80;99.90
18577;DHT22;9418;52.694;13.294;2024-03-02T14:58:44;13.80;99.90
18577;DHT22;9418;52.694;13.294;2024-03-02T15:01:11;13.80;99.90
18577;DHT22;9418;52.694;13.294;2024-03-02T15:03:38;13.80;99.90
18577;DHT22;9418;52.694;13.294;2024-03-02T15:06:05;13.90;99.90
18577;DHT22;9418;52.694;13.294;2024-03-02T15:08:34;14.00;99.90
18577;DHT22;9418;52.694;13.294;2024-03-02T15:11:01;14.00;99.90
18577;DHT22;9418;52.694;13.294;2024-03-02T15:13:29;13.90;99.90
18577;DHT22;9418;52.694;13.294;2024-03-02T15:15:56;14.00;99.90
18577;DHT22;9418;52.694;13.294;2024-03-02T15:18:22;14.10;99.90
18577;DHT22;9418;52.694;13.294;2024-03-02T15:20:49;14.10;99.90
18577;DHT22;9418;52.694;13.294;2024-03-02T15:23:16;14.10;99.90
18577;DHT22;9418;52.694;13.294;2024-03-02T15:25:44;14.00;99.90
18577;DHT22;9418;52.694;13.294;2024-03-02T15:28:10;13.90;99.90
18577;DHT22;9418;52.694;13.294;2024-03-02T15:30:37;13.90;99.90
18577;DHT22;9418;52.694;13.294;2024-03-02T15:33:04;13.60;99.90
18577;DHT22;9418;52.694;13.294;2024-03-02T15:35:30;13.50;99.90
18577;DHT22;9418;52.694;13.294;2024-03-02T15:37:57;13.50;99.90
18577;DHT22;9418;52.694;13.294;2024-03-02T15:40:24;13.30;99.90
18577;DHT22;9418;52.694;13.294;2024-03-02T15:42:52;13.30;99.90
18577;DHT22;9418;52.694;13.294;2024-03-02T15:45:19;13.10;99.90